createdAt,value
2019-05-28T00:00:41.904Z,20.60
2019-05-28T00:03:29.955Z,20.60
2019-05-28T00:05:58.663Z,20.60
2019-05-28T00:08:46.791Z,20.50
2019-05-28T00:11:15.996Z,20.40
2019-05-28T00:14:04.080Z,20.40
2019-05-28T00:16:33.113Z,20.40
2019-05-28T00:19:02.066Z,20.40
2019-05-28T00:21:50.284Z,20.40
2019-05-28T00:24:38.275Z,20.40
2019-05-28T00:27:07.279Z,20.40
2019-05-28T00:29:36.049Z,20.40
2019-05-28T00:32:24.367Z,20.40
2019-05-28T00:35:12.394Z,20.30
2019-05-28T00:37:41.916Z,20.30
2019-05-28T00:40:29.839Z,20.30
2019-05-28T00:42:58.996Z,20.30
2019-05-28T00:45:27.911Z,20.30
2019-05-28T00:48:15.998Z,20.30
2019-05-28T00:50:45.179Z,20.30
2019-05-28T00:53:33.448Z,20.20
2019-05-28T00:56:02.125Z,20.10
2019-05-28T00:58:50.425Z,20.10
2019-05-28T01:01:19.376Z,20.10
2019-05-28T01:04:07.696Z,20.20
2019-05-28T01:07:00.387Z,20.20
2019-05-28T01:09:29.117Z,20.10
2019-05-28T01:11:57.840Z,20.10
2019-05-28T01:14:26.514Z,20.20
2019-05-28T01:16:55.490Z,20.10
2019-05-28T01:19:36.376Z,20.10
2019-05-28T01:22:17.182Z,20.10
2019-05-28T01:24:58.621Z,20.10
2019-05-28T01:27:27.303Z,20.10
2019-05-28T01:30:15.287Z,20.00
2019-05-28T01:32:44.005Z,20.10
2019-05-28T01:35:12.708Z,20.10
2019-05-28T01:37:41.511Z,20.00
2019-05-28T01:40:10.199Z,20.10
2019-05-28T01:42:38.863Z,20.00
2019-05-28T01:45:07.565Z,20.00
2019-05-28T01:47:36.334Z,20.10
2019-05-28T01:50:24.393Z,20.00
2019-05-28T01:52:53.737Z,20.10
2019-05-28T01:55:22.684Z,20.00
2019-05-28T01:57:51.603Z,20.00
2019-05-28T02:00:39.876Z,20.10
2019-05-28T02:03:09.110Z,20.10
2019-05-28T02:05:38.319Z,20.00
2019-05-28T02:08:26.317Z,20.00
2019-05-28T02:10:57.507Z,20.10
2019-05-28T02:13:26.235Z,20.00
2019-05-28T02:15:55.142Z,20.10
2019-05-28T02:18:24.139Z,20.00
2019-05-28T02:21:05.307Z,20.00
2019-05-28T02:23:34.488Z,20.00
2019-05-28T02:26:03.675Z,20.00
2019-05-28T02:28:32.563Z,20.00
2019-05-28T02:31:27.790Z,19.90
2019-05-28T02:33:51.244Z,20.00
2019-05-28T02:36:19.916Z,19.90
2019-05-28T02:38:48.548Z,19.90
2019-05-28T02:41:17.499Z,19.90
2019-05-28T02:43:46.178Z,20.00
2019-05-28T02:46:34.243Z,19.90
2019-05-28T02:49:02.934Z,19.90
2019-05-28T02:51:51.009Z,19.90
2019-05-28T02:57:07.971Z,19.90
2019-05-28T02:59:56.435Z,19.80
2019-05-28T03:02:25.539Z,19.90
2019-05-28T03:04:54.253Z,19.80
2019-05-28T03:07:23.236Z,19.90
2019-05-28T03:09:52.199Z,19.80
2019-05-28T03:12:21.074Z,19.80
2019-05-28T03:15:09.135Z,19.80
2019-05-28T03:17:37.788Z,19.80
2019-05-28T03:20:18.359Z,19.80
2019-05-28T03:22:59.079Z,19.80
2019-05-28T03:25:39.863Z,19.80
2019-05-28T03:28:21.013Z,19.70
2019-05-28T03:30:49.839Z,19.80
2019-05-28T03:33:18.596Z,19.70
2019-05-28T03:35:47.270Z,19.70
2019-05-28T03:38:16.532Z,19.70
2019-05-28T03:40:45.637Z,19.70
2019-05-28T03:43:33.692Z,19.70
2019-05-28T03:46:02.573Z,19.70
2019-05-28T03:48:31.287Z,19.70
2019-05-28T03:50:59.982Z,19.60
2019-05-28T03:53:48.202Z,19.60
2019-05-28T03:56:17.055Z,19.70
2019-05-28T03:58:45.881Z,19.70
2019-05-28T04:01:14.717Z,19.60
2019-05-28T04:04:02.779Z,19.60
2019-05-28T04:06:51.122Z,19.70
2019-05-28T04:09:19.873Z,19.60
2019-05-28T04:11:48.586Z,19.70
2019-05-28T04:14:17.326Z,19.60
2019-05-28T04:16:46.052Z,19.60
2019-05-28T04:19:34.259Z,19.70
2019-05-28T04:22:02.961Z,19.70
2019-05-28T04:24:51.105Z,19.70
2019-05-28T04:27:39.152Z,19.70
2019-05-28T04:30:07.879Z,19.80
2019-05-28T04:32:56.152Z,19.80
2019-05-28T04:35:25.492Z,19.80
2019-05-28T04:37:55.348Z,19.90
2019-05-28T04:40:24.522Z,19.90
2019-05-28T04:43:12.824Z,19.80
2019-05-28T04:45:41.562Z,19.90
2019-05-28T04:48:10.285Z,19.90
2019-05-28T04:50:38.997Z,19.90
2019-05-28T04:53:27.092Z,19.90
2019-05-28T04:55:59.302Z,19.90
2019-05-28T04:58:28.270Z,19.80
2019-05-28T05:00:57.534Z,19.80
2019-05-28T05:03:26.744Z,19.80
2019-05-28T05:05:56.058Z,19.80
2019-05-28T05:08:24.950Z,19.80
2019-05-28T05:10:53.596Z,19.80
2019-05-28T05:13:41.840Z,19.90
2019-05-28T05:16:10.588Z,19.90
2019-05-28T05:18:58.689Z,19.90
2019-05-28T05:21:27.444Z,20.00
2019-05-28T05:24:18.797Z,20.00
2019-05-28T05:26:47.952Z,19.90
2019-05-28T05:29:16.930Z,20.00
2019-05-28T05:32:08.292Z,20.00
2019-05-28T05:34:57.675Z,20.00
2019-05-28T05:37:26.362Z,20.10
2019-05-28T05:40:14.663Z,20.20
2019-05-28T05:42:47.248Z,20.20
2019-05-28T05:45:16.388Z,20.20
2019-05-28T05:47:45.055Z,20.30
2019-05-28T05:50:33.481Z,20.30
2019-05-28T05:53:02.570Z,20.40
2019-05-28T05:55:31.569Z,20.40
2019-05-28T05:58:19.970Z,20.50
2019-05-28T06:00:49.065Z,20.50
2019-05-28T06:03:40.699Z,20.60
2019-05-28T06:06:26.856Z,20.60
2019-05-28T06:09:14.927Z,20.70
2019-05-28T06:11:44.140Z,20.80
2019-05-28T06:14:12.971Z,20.70
2019-05-28T06:16:41.962Z,20.70
2019-05-28T06:19:30.223Z,20.70
2019-05-28T06:21:59.382Z,20.70
2019-05-28T06:24:28.208Z,20.70
2019-05-28T06:26:57.765Z,20.60
2019-05-28T06:29:26.860Z,20.60
2019-05-28T06:31:55.867Z,20.70
2019-05-28T06:34:24.658Z,20.70
2019-05-28T06:36:53.510Z,20.80
2019-05-28T06:39:41.657Z,20.80
2019-05-28T06:42:29.711Z,20.90
2019-05-28T06:45:19.393Z,21.00
2019-05-28T06:48:07.461Z,21.10
2019-05-28T06:50:55.449Z,21.20
2019-05-28T06:53:24.099Z,21.20
2019-05-28T06:56:12.108Z,21.20
2019-05-28T06:58:40.823Z,21.20
2019-05-28T07:01:23.279Z,21.30
2019-05-28T07:04:13.439Z,21.40
2019-05-28T07:06:59.152Z,21.60
2019-05-28T07:12:25.889Z,21.60
2019-05-28T07:15:06.982Z,21.50
2019-05-28T07:17:48.520Z,21.50
2019-05-28T07:20:29.735Z,21.60
2019-05-28T07:23:10.298Z,21.80
2019-05-28T07:25:51.464Z,21.80
2019-05-28T07:28:32.725Z,21.90
2019-05-28T07:31:13.911Z,21.90
2019-05-28T07:33:55.077Z,21.80
2019-05-28T07:36:23.751Z,21.90
2019-05-28T07:38:52.423Z,21.80
2019-05-28T07:41:21.498Z,21.80
2019-05-28T07:44:09.491Z,22.00
2019-05-28T07:46:57.746Z,21.90
2019-05-28T07:49:27.191Z,22.00
2019-05-28T07:51:55.925Z,22.20
2019-05-28T07:54:25.100Z,22.30
2019-05-28T07:56:53.796Z,22.20
2019-05-28T07:59:41.824Z,22.10
2019-05-28T08:02:30.388Z,22.10
2019-05-28T08:04:59.543Z,22.30
2019-05-28T08:07:28.219Z,22.70
2019-05-28T08:10:16.246Z,22.60
2019-05-28T08:15:40.364Z,22.40
2019-05-28T08:18:09.035Z,22.60
2019-05-28T08:20:37.726Z,22.80
2019-05-28T08:23:25.732Z,22.90
2019-05-28T08:26:13.772Z,22.90
2019-05-28T08:28:42.466Z,22.80
2019-05-28T08:31:16.382Z,22.70
2019-05-28T08:33:41.544Z,22.80
2019-05-28T08:36:29.607Z,22.90
2019-05-28T08:39:17.632Z,23.40
2019-05-28T08:42:05.774Z,23.70
2019-05-28T08:44:54.327Z,23.90
2019-05-28T08:47:43.038Z,24.20
2019-05-28T08:50:35.045Z,24.40
2019-05-28T08:53:02.052Z,24.70
2019-05-28T08:55:50.684Z,24.90
2019-05-28T09:01:07.657Z,25.40
2019-05-28T09:03:36.867Z,25.50
2019-05-28T09:06:05.769Z,25.80
2019-05-28T09:08:39.473Z,25.90
2019-05-28T09:11:24.151Z,25.90
2019-05-28T09:14:12.763Z,25.70
2019-05-28T09:16:41.706Z,25.40
2019-05-28T09:19:29.684Z,25.30
2019-05-28T09:22:24.618Z,25.20
2019-05-28T09:24:53.801Z,25.30
2019-05-28T09:27:34.697Z,25.70
2019-05-28T09:30:15.252Z,26.20
2019-05-28T09:32:56.730Z,26.10
2019-05-28T09:35:44.788Z,25.90
2019-05-28T09:38:20.672Z,25.90
2019-05-28T09:40:51.209Z,26.50
2019-05-28T09:43:20.059Z,27.00
2019-05-28T09:46:10.756Z,27.50
2019-05-28T09:48:59.216Z,27.90
2019-05-28T09:51:32.503Z,28.20
2019-05-28T09:54:18.505Z,28.50
2019-05-28T09:56:52.050Z,28.70
2019-05-28T09:59:21.368Z,28.90
2019-05-28T10:01:50.459Z,28.80
2019-05-28T10:04:19.703Z,28.90
2019-05-28T10:06:50.702Z,29.20
2019-05-28T10:09:41.483Z,29.50
2019-05-28T10:12:30.042Z,29.60
2019-05-28T10:15:18.632Z,29.90
2019-05-28T10:17:47.895Z,30.40
2019-05-28T10:20:20.234Z,30.70
2019-05-28T10:23:01.379Z,31.20
2019-05-28T10:25:42.815Z,31.30
2019-05-28T10:28:23.480Z,31.10
2019-05-28T10:30:52.280Z,30.80
2019-05-28T10:33:21.283Z,31.00
2019-05-28T10:35:49.964Z,31.40
2019-05-28T10:38:18.648Z,31.80
2019-05-28T10:40:47.653Z,31.80
2019-05-28T10:43:35.716Z,32.00
2019-05-28T10:46:05.163Z,32.30
2019-05-28T10:48:34.227Z,32.40
2019-05-28T10:51:03.291Z,32.50
2019-05-28T10:53:32.484Z,32.80
2019-05-28T10:56:20.765Z,33.00
2019-05-28T10:59:08.928Z,33.00
2019-05-28T11:01:38.449Z,32.70
2019-05-28T11:04:07.121Z,32.30
2019-05-28T11:06:50.952Z,32.10
2019-05-28T11:09:25.883Z,32.20
2019-05-28T11:11:55.133Z,32.40
2019-05-28T11:14:24.061Z,32.70
2019-05-28T11:16:53.096Z,32.90
2019-05-28T11:19:22.099Z,32.50
2019-05-28T11:21:51.020Z,32.30
2019-05-28T11:24:19.674Z,32.00
2019-05-28T11:27:07.925Z,31.80
2019-05-28T11:29:36.876Z,31.60
2019-05-28T11:32:05.553Z,32.00
2019-05-28T11:34:35.044Z,32.70
2019-05-28T11:37:09.317Z,33.00
2019-05-28T11:39:34.556Z,32.70
2019-05-28T11:42:03.491Z,32.00
2019-05-28T11:44:32.522Z,31.50
2019-05-28T11:47:01.537Z,31.10
2019-05-28T11:49:30.509Z,30.90
2019-05-28T11:51:59.776Z,30.80
2019-05-28T11:54:28.719Z,30.70
2019-05-28T11:56:57.376Z,30.60
2019-05-28T11:59:26.572Z,30.60
2019-05-28T12:01:55.305Z,30.60
2019-05-28T12:04:24.026Z,30.70
2019-05-28T12:07:25.005Z,30.80
2019-05-28T12:09:42.535Z,31.00
2019-05-28T12:12:11.573Z,30.90
2019-05-28T12:14:40.497Z,31.00
2019-05-28T12:17:41.827Z,30.80
2019-05-28T12:23:18.368Z,31.20
2019-05-28T12:25:59.768Z,31.30
2019-05-28T12:28:40.720Z,31.30
2019-05-28T12:31:21.226Z,31.20
2019-05-28T12:34:02.225Z,31.20
2019-05-28T12:36:42.632Z,31.00
2019-05-28T12:39:23.574Z,31.30
2019-05-28T12:42:07.130Z,31.60
2019-05-28T12:44:47.936Z,31.80
2019-05-28T12:47:28.689Z,31.90
2019-05-28T12:50:19.110Z,32.00
2019-05-28T12:52:52.345Z,32.00
2019-05-28T12:55:32.764Z,31.90
2019-05-28T12:58:17.101Z,31.80
2019-05-28T13:00:56.090Z,31.90
2019-05-28T13:03:37.466Z,32.30
2019-05-28T13:06:19.058Z,32.30
2019-05-28T13:09:00.075Z,32.60
2019-05-28T13:11:41.072Z,32.70
2019-05-28T13:14:22.663Z,32.70
2019-05-28T13:17:03.864Z,32.60
2019-05-28T13:19:44.893Z,32.50
2019-05-28T13:22:26.770Z,32.10
2019-05-28T13:24:55.988Z,31.70
2019-05-28T13:27:25.383Z,31.60
2019-05-28T13:29:57.161Z,31.90
2019-05-28T13:32:45.722Z,31.90
2019-05-28T13:35:34.186Z,32.10
2019-05-28T13:38:03.500Z,32.20
2019-05-28T13:40:50.461Z,32.20
2019-05-28T13:43:17.954Z,32.20
2019-05-28T13:46:07.599Z,32.30
2019-05-28T13:48:34.536Z,32.30
2019-05-28T13:51:01.529Z,32.40
2019-05-28T13:53:30.991Z,32.40
2019-05-28T13:55:58.316Z,32.40
2019-05-28T13:58:44.922Z,32.50
2019-05-28T14:01:12.514Z,32.60
2019-05-28T14:03:39.675Z,32.40
2019-05-28T14:06:06.705Z,32.40
2019-05-28T14:08:45.776Z,32.30
2019-05-28T14:11:03.371Z,32.40
2019-05-28T14:13:30.629Z,32.40
2019-05-28T14:15:57.959Z,32.40
2019-05-28T14:18:56.040Z,32.40
2019-05-28T14:21:42.800Z,32.40
2019-05-28T14:24:09.627Z,32.40
2019-05-28T14:26:39.663Z,32.50
2019-05-28T14:29:06.863Z,32.40
2019-05-28T14:31:34.504Z,32.30
2019-05-28T14:34:01.401Z,32.10
2019-05-28T14:36:28.183Z,31.90
2019-05-28T14:39:03.045Z,31.90
2019-05-28T14:41:23.758Z,31.90
2019-05-28T14:43:50.640Z,31.60
2019-05-28T14:46:17.805Z,31.60
2019-05-28T14:49:07.680Z,31.50
2019-05-28T14:51:33.002Z,31.30
2019-05-28T14:53:59.856Z,31.20
2019-05-28T14:56:26.697Z,31.20
2019-05-28T14:58:53.525Z,31.10
2019-05-28T15:01:20.708Z,31.00
2019-05-28T15:03:47.710Z,30.90
2019-05-28T15:06:14.552Z,30.90
2019-05-28T15:08:41.467Z,30.90
2019-05-28T15:11:33.211Z,30.90
2019-05-28T15:14:03.608Z,30.90
2019-05-28T15:16:50.147Z,30.80
2019-05-28T15:19:18.387Z,30.70
2019-05-28T15:21:45.540Z,30.50
2019-05-28T15:24:15.719Z,30.30
2019-05-28T15:26:46.022Z,30.20
2019-05-28T15:29:13.028Z,30.10
2019-05-28T15:31:40.349Z,30.00
2019-05-28T15:34:09.001Z,29.90
2019-05-28T15:40:06.174Z,29.70
2019-05-28T15:42:33.563Z,29.60
2019-05-28T15:45:20.492Z,29.30
2019-05-28T15:48:06.961Z,28.10
2019-05-28T15:50:33.834Z,27.50
2019-05-28T15:53:00.832Z,27.20
2019-05-28T15:55:27.772Z,26.80
2019-05-28T15:57:54.709Z,26.50
2019-05-28T16:00:21.888Z,26.40
2019-05-28T16:02:48.790Z,26.10
2019-05-28T16:05:15.637Z,26.00
2019-05-28T16:07:42.565Z,26.00
2019-05-28T16:10:12.463Z,25.90
2019-05-28T16:12:39.456Z,25.80
2019-05-28T16:15:26.208Z,25.70
2019-05-28T16:17:53.372Z,25.60
2019-05-28T16:20:20.255Z,25.30
2019-05-28T16:22:47.723Z,25.20
2019-05-28T16:25:14.604Z,25.10
2019-05-28T16:27:42.217Z,25.00
2019-05-28T16:34:26.197Z,24.80
2019-05-28T16:37:12.917Z,24.60
2019-05-28T16:40:14.434Z,24.60
2019-05-28T16:42:28.937Z,24.30
2019-05-28T16:44:56.526Z,24.10
2019-05-28T16:47:23.536Z,23.80
2019-05-28T16:49:51.164Z,23.80
2019-05-28T16:52:18.050Z,23.80
2019-05-28T16:55:04.737Z,23.70
2019-05-28T16:57:34.588Z,23.60
2019-05-28T17:00:01.577Z,23.30
2019-05-28T17:02:48.055Z,23.30
2019-05-28T17:05:15.269Z,23.30
2019-05-28T17:07:47.651Z,23.20
2019-05-28T17:10:31.355Z,23.20
2019-05-28T17:12:44.584Z,23.20
2019-05-28T17:15:21.258Z,23.20
2019-05-28T17:17:49.157Z,23.00
2019-05-28T17:20:17.385Z,22.90
2019-05-28T17:22:50.967Z,22.80
2019-05-28T17:25:34.104Z,22.70
2019-05-28T17:28:01.242Z,22.50
2019-05-28T17:30:28.311Z,22.60
2019-05-28T17:33:15.012Z,23.00
2019-05-28T17:35:42.349Z,23.30
2019-05-28T17:38:10.165Z,23.40
2019-05-28T17:40:48.006Z,23.40
2019-05-28T17:46:04.992Z,23.60
2019-05-28T17:48:51.807Z,23.70
2019-05-28T17:51:38.483Z,24.00
2019-05-28T17:54:25.397Z,24.00
2019-05-28T17:56:53.293Z,24.10
2019-05-28T17:59:20.215Z,24.10
2019-05-28T18:02:06.656Z,24.20
2019-05-28T18:04:33.546Z,24.10
2019-05-28T18:07:00.608Z,24.00
2019-05-28T18:09:47.390Z,24.00
2019-05-28T18:12:14.864Z,24.10
2019-05-28T18:15:01.697Z,24.10
2019-05-28T18:17:29.402Z,23.50
2019-05-28T18:20:17.201Z,23.80
2019-05-28T18:22:44.092Z,23.80
2019-05-28T18:25:11.190Z,23.80
2019-05-28T18:27:58.220Z,23.80
2019-05-28T18:30:44.717Z,23.50
2019-05-28T18:33:11.512Z,23.30
2019-05-28T18:35:58.347Z,23.00
2019-05-28T18:38:25.440Z,23.20
2019-05-28T18:40:52.561Z,23.50
2019-05-28T18:43:19.867Z,23.50
2019-05-28T18:45:47.221Z,23.40
2019-05-28T18:48:14.496Z,23.30
2019-05-28T18:51:01.585Z,23.40
2019-05-28T18:53:48.201Z,23.20
2019-05-28T18:56:17.795Z,23.20
2019-05-28T18:59:04.805Z,23.30
2019-05-28T19:01:32.712Z,23.20
2019-05-28T19:03:59.922Z,23.00
2019-05-28T19:06:46.765Z,23.00
2019-05-28T19:09:14.112Z,22.90
2019-05-28T19:11:40.929Z,23.10
2019-05-28T19:14:27.826Z,23.20
2019-05-28T19:16:54.988Z,23.30
2019-05-28T19:19:22.325Z,23.30
2019-05-28T19:21:49.827Z,23.40
2019-05-28T19:24:16.657Z,23.40
2019-05-28T19:26:43.467Z,23.40
2019-05-28T19:29:29.912Z,23.40
2019-05-28T19:31:57.276Z,23.40
2019-05-28T19:34:24.367Z,23.40
2019-05-28T19:37:11.107Z,23.40
2019-05-28T19:39:39.325Z,23.30
2019-05-28T19:42:26.390Z,23.20
2019-05-28T19:45:13.234Z,23.30
2019-05-28T19:47:40.026Z,23.20
2019-05-28T19:50:26.748Z,23.20
2019-05-28T19:52:56.962Z,23.20
2019-05-28T19:55:23.208Z,23.10
2019-05-28T19:58:09.729Z,23.10
2019-05-28T20:00:36.752Z,23.10
2019-05-28T20:03:23.512Z,23.00
2019-05-28T20:06:10.269Z,22.90
2019-05-28T20:08:37.373Z,22.90
2019-05-28T20:11:04.444Z,22.80
2019-05-28T20:13:31.605Z,22.90
2019-05-28T20:16:18.352Z,22.80
2019-05-28T20:18:47.178Z,22.80
2019-05-28T20:21:34.319Z,22.70
2019-05-28T20:24:13.855Z,22.70
2019-05-28T20:26:54.517Z,22.60
2019-05-28T20:29:34.524Z,22.60
2019-05-28T20:32:03.103Z,22.50
2019-05-28T20:34:30.934Z,22.50
2019-05-28T20:37:17.955Z,22.40
2019-05-28T20:39:44.754Z,22.40
2019-05-28T20:42:31.846Z,22.40
2019-05-28T20:44:59.917Z,22.30
2019-05-28T20:47:46.636Z,22.30
2019-05-28T20:50:33.512Z,22.20
2019-05-28T20:53:33.247Z,22.20
2019-05-28T20:55:50.008Z,22.20
2019-05-28T20:58:17.699Z,22.10
2019-05-28T21:01:04.289Z,22.10
2019-05-28T21:03:31.139Z,22.00
2019-05-28T21:05:59.240Z,22.00
2019-05-28T21:08:46.263Z,22.00
2019-05-28T21:11:13.455Z,21.90
2019-05-28T21:13:40.336Z,21.90
2019-05-28T21:16:27.172Z,21.90
2019-05-28T21:18:55.210Z,21.80
2019-05-28T21:21:41.893Z,21.80
2019-05-28T21:24:28.390Z,21.80
2019-05-28T21:26:56.230Z,21.70
2019-05-28T21:29:24.097Z,21.70
2019-05-28T21:31:50.910Z,21.70
2019-05-28T21:34:17.804Z,21.70
2019-05-28T21:37:05.747Z,21.70
2019-05-28T21:39:33.487Z,21.60
2019-05-28T21:42:20.213Z,21.60
2019-05-28T21:44:47.317Z,21.60
2019-05-28T21:47:14.628Z,21.60
2019-05-28T21:49:41.724Z,21.50
2019-05-28T21:52:09.424Z,21.50
2019-05-28T21:54:57.077Z,21.50
2019-05-28T21:57:44.263Z,21.40
2019-05-28T22:00:18.604Z,21.50
2019-05-28T22:02:45.653Z,21.40
2019-05-28T22:05:12.964Z,21.30
2019-05-28T22:07:39.823Z,21.30
2019-05-28T22:10:06.667Z,21.20
2019-05-28T22:12:33.791Z,21.20
2019-05-28T22:15:00.676Z,21.10
2019-05-28T22:17:27.464Z,21.10
2019-05-28T22:20:13.956Z,21.10
2019-05-28T22:22:41.279Z,21.10
2019-05-28T22:25:08.808Z,21.00
2019-05-28T22:27:37.514Z,20.90
2019-05-28T22:30:24.201Z,20.90
2019-05-28T22:33:10.947Z,20.90
2019-05-28T22:35:38.596Z,20.80
2019-05-28T22:38:05.847Z,20.80
2019-05-28T22:40:52.555Z,20.70
2019-05-28T22:43:31.106Z,20.70
2019-05-28T22:45:49.143Z,20.80
2019-05-28T22:48:17.793Z,20.70
2019-05-28T22:50:45.531Z,20.70
2019-05-28T22:53:12.683Z,20.70
2019-05-28T22:56:00.023Z,20.50
2019-05-28T22:58:27.456Z,20.50
2019-05-28T23:00:54.844Z,20.50
2019-05-28T23:03:22.199Z,20.50
2019-05-28T23:05:49.842Z,20.50
2019-05-28T23:08:36.569Z,20.40
2019-05-28T23:11:04.789Z,20.40
2019-05-28T23:13:46.054Z,20.30
2019-05-28T23:16:02.555Z,20.30
2019-05-28T23:18:29.641Z,20.20
2019-05-28T23:20:56.619Z,20.20
2019-05-28T23:23:43.116Z,20.20
2019-05-28T23:26:22.921Z,20.10
2019-05-28T23:29:03.701Z,20.10
2019-05-28T23:31:30.651Z,20.10
2019-05-28T23:33:57.422Z,20.10
2019-05-28T23:36:43.916Z,20.10
2019-05-28T23:39:30.360Z,20.00
2019-05-28T23:41:57.674Z,20.00
2019-05-28T23:44:44.528Z,20.00
2019-05-28T23:47:31.295Z,20.00
2019-05-28T23:50:18.327Z,19.90
2019-05-28T23:53:05.650Z,19.80
2019-05-28T23:55:32.677Z,19.80
2019-05-28T23:58:19.664Z,19.70
